Time;durP1;ratioP1;P1;durP2;ratioP2;P2;SDS_P1;SDS_P2;PMS_P1;PMS_P2;Temp;Humidity;BMP_temperature;BMP_pressure;BME280_temperature;BME280_humidity;BME280_pressure;Samples;Min_cycle;Max_cycle;Signal;HPM_P1;HPM_P2
2022/07/04 00:02:00;;;;;;;0.70;0.70;;;;;;;13.24;68.06;101956.34;5095901;28;20028;-81
2022/07/04 00:04:25;;;;;;;1.95;0.75;;;;;;;13.18;67.95;101945.94;5096690;28;20470;-81
2022/07/04 00:06:50;;;;;;;0.80;0.80;;;;;;;13.17;68.33;101954.69;5095372;28;20115;-81
2022/07/04 00:09:16;;;;;;;0.90;0.90;;;;;;;13.13;68.30;101940.78;5096131;28;20060;-81
2022/07/04 00:11:41;;;;;;;0.60;0.60;;;;;;;13.10;68.32;101946.88;5095760;28;20027;-81
2022/07/04 00:14:07;;;;;;;1.07;0.90;;;;;;;13.03;68.80;101942.63;5095234;28;20073;-81
2022/07/04 00:16:33;;;;;;;1.50;0.93;;;;;;;13.04;68.69;101946.94;5095772;28;20020;-81
2022/07/04 00:18:59;;;;;;;;;;;;;;;13.00;69.12;101941.78;5096099;28;20031;-81
2022/07/04 00:21:24;;;;;;;1.07;1.00;;;;;;;12.95;68.65;101936.56;5092737;28;20352;-81
2022/07/04 00:23:49;;;;;;;1.20;1.20;;;;;;;12.92;68.85;101939.22;5095265;28;20032;-81
2022/07/04 00:26:15;;;;;;;1.30;1.13;;;;;;;12.91;68.80;101940.09;5095664;28;20024;-81
2022/07/04 00:28:40;;;;;;;0.80;0.80;;;;;;;12.86;69.06;101932.31;5094551;28;20047;-81
2022/07/04 00:31:05;;;;;;;0.80;0.80;;;;;;;12.79;69.31;101930.63;5089895;28;20071;-81
2022/07/04 00:33:31;;;;;;;0.80;0.80;;;;;;;12.75;69.19;101927.16;5075010;28;20523;-81
2022/07/04 00:35:56;;;;;;;1.03;1.03;;;;;;;12.75;69.12;101937.59;5072288;28;20028;-81
2022/07/04 00:38:21;;;;;;;0.83;0.83;;;;;;;12.75;69.20;101941.94;5075348;28;20400;-81
2022/07/04 00:40:47;;;;;;;0.80;0.80;;;;;;;12.69;69.41;101940.25;5072071;28;20065;-81
2022/07/04 00:43:12;;;;;;;0.80;0.80;;;;;;;12.65;69.53;101943.75;5070114;28;20129;-81
2022/07/04 00:45:37;;;;;;;1.03;1.03;;;;;;;12.61;69.77;101948.09;5095064;28;20054;-81
2022/07/04 00:48:03;;;;;;;0.90;0.90;;;;;;;12.58;69.82;101944.66;5095148;28;20107;-81
2022/07/04 00:50:28;;;;;;;1.03;0.80;;;;;;;12.54;69.87;101941.22;5094767;28;20082;-81
2022/07/04 00:52:56;;;;;;;0.97;0.87;;;;;;;12.46;69.77;101929.97;5076795;28;20032;-81
2022/07/04 00:55:23;;;;;;;0.98;0.98;;;;;;;12.46;69.73;101940.38;5074888;28;20033;-81
2022/07/04 00:57:48;;;;;;;1.10;1.10;;;;;;;12.44;69.87;101942.16;5074031;28;20028;-81
2022/07/04 01:00:14;;;;;;;1.03;1.00;;;;;;;12.43;70.15;101943.03;5074201;28;20103;-81
2022/07/04 01:02:39;;;;;;;0.90;0.90;;;;;;;12.39;70.18;101942.13;5065365;28;20088;-81
2022/07/04 01:05:06;;;;;;;1.10;1.10;;;;;;;12.35;70.14;101941.28;5087338;28;20376;-81
2022/07/04 01:07:32;;;;;;;1.10;1.10;;;;;;;12.36;70.41;101939.56;5074700;28;20107;-81
2022/07/04 01:09:57;;;;;;;1.40;1.30;;;;;;;12.32;70.05;101932.66;5074370;28;20135;-82
2022/07/04 01:12:29;;;;;;;1.40;1.30;;;;;;;12.25;70.40;101920.53;5074787;28;20460;-81
2022/07/04 01:14:55;;;;;;;1.17;1.17;;;;;;;12.18;70.61;101920.56;5074217;28;20052;-82
2022/07/04 01:17:21;;;;;;;1.20;1.10;;;;;;;12.23;70.76;101928.34;5073952;28;20468;-81
2022/07/04 01:19:46;;;;;;;1.23;1.23;;;;;;;12.14;70.74;101912.78;5085645;28;20021;-81
2022/07/04 01:22:12;;;;;;;1.07;1.07;;;;;;;12.15;70.77;101914.50;5075829;28;20040;-82
2022/07/04 01:24:38;;;;;;;1.03;1.03;;;;;;;12.17;70.95;101928.38;5073539;28;20017;-81
2022/07/04 01:27:03;;;;;;;1.47;1.37;;;;;;;12.13;70.92;101924.94;5074531;28;20773;-82
2022/07/04 01:29:31;;;;;;;1.00;1.00;;;;;;;12.11;71.13;101920.59;5073970;28;20024;-82
2022/07/04 01:31:56;;;;;;;1.00;1.00;;;;;;;12.09;70.99;101920.59;5073371;28;20024;-82
2022/07/04 01:34:22;;;;;;;1.00;1.00;;;;;;;12.07;71.13;101911.09;5074133;28;20031;-81
2022/07/04 01:36:47;;;;;;;0.97;0.97;;;;;;;12.03;70.91;101907.63;5074110;28;20362;-81
2022/07/04 01:39:12;;;;;;;1.27;1.20;;;;;;;12.03;71.08;101918.91;5071259;28;20036;-81
2022/07/04 01:41:37;;;;;;;1.10;1.10;;;;;;;12.02;71.29;101916.31;5073638;28;20064;-82
2022/07/04 01:44:03;;;;;;;2.30;1.60;;;;;;;11.98;70.99;101904.19;5074216;28;20402;-81
2022/07/04 01:46:28;;;;;;;1.53;1.43;;;;;;;11.95;71.19;101902.44;5072441;28;20107;-82
2022/07/04 01:48:54;;;;;;;1.20;1.20;;;;;;;11.94;71.44;101903.28;5071656;28;20036;-81
2022/07/04 01:51:19;;;;;;;1.27;1.23;;;;;;;11.96;71.75;101903.28;5076324;28;20111;-82
2022/07/04 01:53:44;;;;;;;1.27;1.20;;;;;;;11.95;71.51;101907.63;5093257;28;20066;-82
2022/07/04 01:56:09;;;;;;;1.30;1.30;;;;;;;11.94;71.43;101905.00;5094233;28;20024;-82
2022/07/04 01:58:35;;;;;;;1.47;1.37;;;;;;;11.89;71.55;101887.72;5093948;28;20032;-81
2022/07/04 02:03:45;;;;;;;1.38;1.38;;;;;;;11.86;71.41;101890.31;5073364;28;20044;-82
2022/07/04 02:06:13;;;;;;;1.50;1.40;;;;;;;11.86;71.45;101887.72;5072837;28;20385;-82
2022/07/04 02:11:22;;;;;;;1.23;1.15;;;;;;;11.81;71.85;101889.47;5073602;28;20039;-82
2022/07/04 02:13:47;;;;;;;1.50;1.40;;;;;;;11.79;72.32;101891.22;5072676;28;20020;-82
2022/07/04 02:16:12;;;;;;;1.20;1.20;;;;;;;11.81;72.08;101897.28;5073330;28;20042;-81
2022/07/04 02:18:38;;;;;;;1.37;1.27;;;;;;;11.70;71.97;101884.31;5082789;28;20040;-82
2022/07/04 02:21:04;;;;;;;1.50;1.40;;;;;;;11.74;71.85;101893.84;5092731;28;20110;-82
2022/07/04 02:23:31;;;;;;;1.40;1.30;;;;;;;11.68;72.20;101893.00;5093492;28;20031;-82
2022/07/04 02:25:57;;;;;;;2.42;1.10;;;;;;;11.63;72.42;101885.19;5093100;28;20297;-82
2022/07/04 02:28:22;;;;;;;1.53;1.43;;;;;;;11.67;72.12;101893.84;5092732;28;20016;-81
2022/07/04 02:30:48;;;;;;;1.30;1.20;;;;;;;11.56;72.23;101883.47;5093367;28;20024;-82
2022/07/04 02:33:13;;;;;;;1.20;1.20;;;;;;;11.59;72.23;101893.88;5093546;28;20464;-82
2022/07/04 02:35:38;;;;;;;1.57;1.47;;;;;;;11.63;72.05;101910.31;5092186;28;20077;-82
2022/07/04 02:38:03;;;;;;;1.47;1.40;;;;;;;11.59;72.15;101899.97;5093393;28;20024;-82
2022/07/04 02:40:29;;;;;;;1.37;1.27;;;;;;;11.50;72.50;101894.75;5093140;28;20356;-82
2022/07/04 02:42:54;;;;;;;1.27;1.27;;;;;;;11.54;72.44;101904.28;5077568;28;20036;-81
2022/07/04 02:45:19;;;;;;;1.53;1.43;;;;;;;11.53;72.30;101901.69;5072124;28;20491;-82
2022/07/04 02:47:44;;;;;;;1.60;1.50;;;;;;;11.52;72.51;101911.22;5060886;28;20037;-82
2022/07/04 02:50:10;;;;;;;1.50;1.40;;;;;;;11.46;72.54;101902.56;5087945;28;20364;-82
2022/07/04 02:52:35;;;;;;;2.07;1.40;;;;;;;11.42;72.44;101900.00;5092407;28;20032;-82
2022/07/04 02:55:01;;;;;;;1.70;1.60;;;;;;;11.47;73.01;101907.78;5091920;28;20020;-82
2022/07/04 02:57:26;;;;;;;1.40;1.30;;;;;;;11.43;72.89;101906.91;5089667;28;20032;-82
2022/07/04 02:59:55;;;;;;;1.20;1.20;;;;;;;11.39;72.93;101906.91;5091869;28;20560;-81
2022/07/04 03:02:20;;;;;;;1.30;1.30;;;;;;;11.33;73.04;101899.97;5091486;28;20024;-82
2022/07/04 03:04:46;;;;;;;1.40;1.30;;;;;;;11.38;72.83;101912.97;5091962;28;20016;-82
2022/07/04 03:07:11;;;;;;;1.20;1.20;;;;;;;11.30;73.30;101905.22;5092102;28;20496;-82
2022/07/04 03:09:36;;;;;;;1.30;1.20;;;;;;;11.28;72.89;101912.97;5090821;28;20024;-82
2022/07/04 03:12:02;;;;;;;1.20;1.20;;;;;;;11.31;73.27;101916.44;5091867;28;20024;-82
2022/07/04 03:14:28;;;;;;;1.20;1.20;;;;;;;11.25;73.24;101912.13;5081820;28;20036;-82
2022/07/04 03:16:53;;;;;;;1.17;1.17;;;;;;;11.24;73.21;101915.59;5070770;28;20023;-82
2022/07/04 03:19:18;;;;;;;1.23;1.23;;;;;;;11.26;73.17;101925.09;5071612;28;20024;-82
2022/07/04 03:21:44;;;;;;;2.33;1.67;;;;;;;11.19;73.38;101920.78;5071375;28;20051;-82
2022/07/04 03:24:10;;;;;;;1.43;1.33;;;;;;;11.15;73.10;101918.19;5070685;28;20025;-82
2022/07/04 03:26:35;;;;;;;1.50;1.40;;;;;;;11.12;73.19;101919.06;5071486;28;20024;-82
2022/07/04 03:29:01;;;;;;;1.80;1.70;;;;;;;11.20;73.60;101929.47;5071339;28;20035;-82
2022/07/04 03:31:28;;;;;;;1.48;1.38;;;;;;;11.16;73.75;101925.97;5070728;28;20032;-82
2022/07/04 03:33:56;;;;;;;1.35;1.35;;;;;;;11.12;73.75;101922.53;5071265;28;20035;-82
2022/07/04 03:36:22;;;;;;;1.83;1.73;;;;;;;11.19;73.80;101936.38;5071340;28;20115;-82
2022/07/04 03:38:47;;;;;;;1.60;1.50;;;;;;;11.18;73.90;101937.25;5064318;28;20123;-82
2022/07/04 03:41:13;;;;;;;1.23;1.23;;;;;;;11.19;73.80;101938.97;5052555;28;1037882;-82
2022/07/04 03:43:39;;;;;;;1.20;1.20;;;;;;;11.18;73.93;101939.00;5089125;28;20028;-82
2022/07/04 03:46:04;;;;;;;1.50;1.40;;;;;;;11.13;73.78;101932.06;5071676;28;20082;-82
2022/07/04 03:48:30;;;;;;;1.40;1.30;;;;;;;11.16;74.12;101948.50;5072188;28;20052;-82
2022/07/04 03:50:56;;;;;;;1.40;1.30;;;;;;;11.09;74.22;101942.44;5070016;28;20027;-82
2022/07/04 03:53:21;;;;;;;1.30;1.20;;;;;;;11.13;73.92;101959.78;5071400;28;20359;-82
2022/07/04 03:55:47;;;;;;;1.57;1.47;;;;;;;11.12;74.18;101956.31;5072228;28;20099;-82
2022/07/04 03:58:12;;;;;;;1.17;1.17;;;;;;;11.13;74.00;101962.38;5072302;28;20511;-82
2022/07/04 04:00:37;;;;;;;1.33;1.33;;;;;;;11.11;74.16;101959.75;5071134;28;20385;-82
2022/07/04 04:05:25;;;;;;;1.30;1.30;;;;;;;11.09;73.96;101956.28;5072171;28;20025;-82
2022/07/04 04:05:48;;;;;;;1.35;1.33;;;;;;;11.10;74.35;101960.63;5069887;28;20037;-82
2022/07/04 04:08:13;;;;;;;1.50;1.40;;;;;;;11.16;75.67;101967.56;5073571;28;20090;-82
2022/07/04 04:10:38;;;;;;;1.60;1.50;;;;;;;11.14;74.68;101969.31;5095882;28;20387;-82
2022/07/04 04:13:04;;;;;;;1.10;1.10;;;;;;;11.16;74.61;101969.31;5095259;28;20030;-82
2022/07/04 04:15:29;;;;;;;1.40;1.30;;;;;;;11.09;74.91;101950.25;5077708;28;20027;-82
2022/07/04 04:17:54;;;;;;;1.53;1.43;;;;;;;11.06;75.13;101945.03;5075521;28;20352;-82
2022/07/04 04:20:20;;;;;;;1.43;1.20;;;;;;;11.13;74.63;101959.78;5074955;28;20025;-82
2022/07/04 04:22:45;;;;;;;2.10;1.40;;;;;;;11.14;75.30;101956.31;5075201;28;20101;-82
2022/07/04 04:25:10;;;;;;;1.40;1.33;;;;;;;11.17;75.08;101961.50;5075633;28;20035;-82
2022/07/04 04:27:36;;;;;;;1.40;1.30;;;;;;;11.26;74.79;101981.44;5074983;28;20031;-83
2022/07/04 04:30:01;;;;;;;1.50;1.40;;;;;;;11.24;77.54;101975.34;5075466;28;20044;-82
2022/07/04 04:32:26;;;;;;;1.50;1.40;;;;;;;11.23;77.25;101971.03;5075754;28;20020;-82
2022/07/04 04:34:52;;;;;;;1.40;1.30;;;;;;;11.27;77.03;101978.81;5074331;28;20461;-82
2022/07/04 04:37:17;;;;;;;1.47;1.37;;;;;;;11.33;77.19;101985.75;5075406;28;20032;-82
2022/07/04 04:39:42;;;;;;;1.10;1.10;;;;;;;11.34;77.15;101986.63;5073038;28;20055;-82
2022/07/04 04:42:08;;;;;;;1.50;1.40;;;;;;;11.44;80.55;101993.56;5070278;28;20055;-82
2022/07/04 04:44:33;;;;;;;1.70;1.60;;;;;;;11.46;80.26;101985.75;5095527;28;20019;-82
2022/07/04 04:46:58;;;;;;;2.10;1.90;;;;;;;11.51;80.54;101991.81;5093276;28;20411;-82
2022/07/04 04:49:24;;;;;;;2.03;1.93;;;;;;;11.54;81.81;101984.88;5094658;28;20434;-83
2022/07/04 04:51:49;;;;;;;2.00;1.80;;;;;;;11.59;80.07;101988.34;5095109;28;20080;-82
2022/07/04 04:54:14;;;;;;;3.03;1.90;;;;;;;11.58;80.04;101977.94;5095520;28;20063;-82
2022/07/04 04:56:40;;;;;;;2.83;1.93;;;;;;;11.68;82.94;101978.81;5094468;28;20547;-82
2022/07/04 04:59:05;;;;;;;2.00;1.90;;;;;;;11.72;82.70;101968.38;5092886;28;20472;-82
2022/07/04 05:01:30;;;;;;;2.10;1.87;;;;;;;11.76;81.02;101968.38;5095058;28;20036;-82
2022/07/04 05:03:56;;;;;;;1.87;1.77;;;;;;;11.84;82.40;101974.44;5094100;28;20024;-82
2022/07/04 05:06:21;;;;;;;3.17;2.10;;;;;;;11.89;81.76;101977.88;5094905;28;20029;-82
2022/07/04 05:08:47;;;;;;;2.13;1.93;;;;;;;11.92;81.36;101969.22;5090072;28;20032;-82
2022/07/04 05:11:12;;;;;;;2.00;1.80;;;;;;;11.99;82.70;101963.16;5074571;28;20362;-83
2022/07/04 05:13:37;;;;;;;2.57;2.10;;;;;;;12.10;82.90;101971.78;5074262;28;20033;-83
2022/07/04 05:16:04;;;;;;;1.70;1.60;;;;;;;12.20;81.38;101980.44;5073907;28;20028;-82
2022/07/04 05:18:29;;;;;;;1.70;1.50;;;;;;;12.22;81.74;101965.66;5074519;28;20036;-83
2022/07/04 05:20:54;;;;;;;5.10;2.57;;;;;;;12.29;84.55;101956.97;5073019;28;20469;-83
2022/07/04 05:23:20;;;;;;;3.47;2.57;;;;;;;12.43;83.97;101966.44;5073924;28;20373;-83
2022/07/04 05:25:45;;;;;;;6.20;2.77;;;;;;;12.47;83.84;101957.72;5074039;28;20495;-82
2022/07/04 05:28:13;;;;;;;4.40;2.57;;;;;;;12.63;83.28;101974.13;5074464;28;20031;-82
2022/07/04 05:30:38;;;;;;;3.25;2.40;;;;;;;12.73;83.88;101972.34;5072054;28;20119;-81
2022/07/04 05:33:03;;;;;;;2.30;2.10;;;;;;;12.82;83.75;101973.16;5074422;28;20044;-82
2022/07/04 05:35:30;;;;;;;3.50;2.27;;;;;;;12.91;81.60;101977.44;5074147;28;20021;-82
2022/07/04 05:37:55;;;;;;;3.80;2.50;;;;;;;12.99;83.55;101972.16;5073014;28;20055;-84
2022/07/04 05:40:23;;;;;;;2.73;2.10;;;;;;;13.10;82.42;101979.91;5072227;28;20056;-84
2022/07/04 05:42:48;;;;;;;2.38;1.88;;;;;;;13.13;82.50;101978.16;5072501;28;20457;-81
2022/07/04 05:45:14;;;;;;;2.23;2.03;;;;;;;13.19;82.68;101973.75;5073238;28;20099;-80
2022/07/04 05:47:39;;;;;;;3.57;2.27;;;;;;;13.34;82.44;101984.06;5073665;28;20457;-81
2022/07/04 05:50:09;;;;;;;3.37;2.10;;;;;;;13.46;82.31;101988.31;5073716;28;20071;-81
2022/07/04 05:52:34;;;;;;;3.72;2.40;;;;;;;13.51;81.61;101988.31;5073268;28;20048;-80
2022/07/04 05:55:00;;;;;;;3.63;2.30;;;;;;;13.63;81.84;101989.91;5073452;28;20112;-81
2022/07/04 05:57:25;;;;;;;8.47;3.00;;;;;;;13.68;83.19;101982.94;5073782;28;20046;-85
2022/07/04 05:59:50;;;;;;;2.53;2.30;;;;;;;13.80;81.65;102000.19;5072673;28;20105;-82
2022/07/04 06:02:16;;;;;;;2.50;2.20;;;;;;;13.86;81.55;101995.78;5073750;28;20081;-82
2022/07/04 06:04:43;;;;;;;2.15;1.95;;;;;;;13.96;81.30;101996.53;5069047;28;20035;-82
2022/07/04 06:07:08;;;;;;;1.67;1.58;;;;;;;14.05;81.15;101996.44;5069405;28;20029;-81
2022/07/04 06:09:34;;;;;;;1.93;1.80;;;;;;;14.32;82.17;102002.19;5070432;28;20099;-81
2022/07/04 06:11:59;;;;;;;1.90;1.80;;;;;;;15.44;82.64;102001.47;5073405;28;20024;-81
2022/07/04 06:14:24;;;;;;;1.50;1.37;;;;;;;17.60;79.42;101996.88;5072811;28;20036;-82
2022/07/04 06:16:50;;;;;;;1.20;1.10;;;;;;;19.52;74.59;101991.13;5073228;28;20017;-82
2022/07/04 06:19:15;;;;;;;1.17;1.10;;;;;;;20.52;71.06;101997.16;5072634;28;20020;-82
2022/07/04 06:21:40;;;;;;;2.43;1.67;;;;;;;20.80;66.16;101995.22;5072690;28;20103;-82
2022/07/04 06:24:05;;;;;;;1.37;1.27;;;;;;;20.56;67.54;101997.03;5073008;28;20400;-82
2022/07/04 06:26:31;;;;;;;1.23;1.17;;;;;;;20.22;66.30;101999.19;5065835;28;20031;-83
2022/07/04 06:28:57;;;;;;;2.30;1.40;;;;;;;19.91;65.24;101992.41;5085483;28;20028;-83
2022/07/04 06:31:22;;;;;;;3.58;1.90;;;;;;;19.71;64.48;101996.59;5092438;28;20024;-83
2022/07/04 06:36:32;;;;;;;1.20;1.10;;;;;;;19.98;65.36;101987.78;5065978;28;20047;-83
2022/07/04 06:38:58;;;;;;;2.00;1.60;;;;;;;20.04;64.62;101992.84;5065869;28;20028;-83
2022/07/04 06:41:23;;;;;;;1.63;1.40;;;;;;;20.15;62.77;101998.53;5072107;28;20036;-81
2022/07/04 06:43:51;;;;;;;1.77;1.67;;;;;;;20.27;62.88;101999.00;5072592;28;20442;-83
2022/07/04 06:46:17;;;;;;;2.00;1.80;;;;;;;20.20;62.93;102004.50;5072174;28;20044;-83
2022/07/04 06:48:43;;;;;;;2.33;1.87;;;;;;;20.10;62.25;102008.41;5049680;28;20044;-86
2022/07/04 06:51:11;;;;;;;1.60;1.50;;;;;;;19.99;62.62;102010.59;5088358;28;20073;-83
2022/07/04 06:53:36;;;;;;;2.55;1.52;;;;;;;19.71;63.20;101998.34;5092854;28;20020;-83
2022/07/04 06:56:11;;;;;;;1.60;1.50;;;;;;;19.50;64.92;102008.72;5092033;28;20027;-86
2022/07/04 06:58:36;;;;;;;1.08;1.08;;;;;;;19.42;65.39;102001.09;5092881;28;20024;-83
2022/07/04 07:01:01;;;;;;;2.03;1.77;;;;;;;19.33;64.50;101990.88;5092040;28;20358;-82
2022/07/04 07:03:29;;;;;;;1.27;1.10;;;;;;;19.31;64.66;101995.34;5092207;28;20384;-82
2022/07/04 07:05:56;;;;;;;1.00;1.00;;;;;;;19.18;65.11;101976.47;5092684;28;20045;-83
2022/07/04 07:08:22;;;;;;;3.33;1.75;;;;;;;19.24;64.72;101986.81;5088900;28;20063;-83
2022/07/04 07:10:47;;;;;;;1.77;1.42;;;;;;;19.35;64.34;101981.16;5072362;28;20059;-84
2022/07/04 07:13:14;;;;;;;2.10;1.87;;;;;;;19.48;64.67;101978.97;5072550;28;20021;-83
2022/07/04 07:15:39;;;;;;;2.35;1.90;;;;;;;19.64;63.72;101981.94;5071406;28;20031;-82
2022/07/04 07:18:05;;;;;;;1.88;1.60;;;;;;;19.61;63.98;101987.31;5072650;28;20018;-82
2022/07/04 07:20:30;;;;;;;1.50;1.40;;;;;;;19.69;63.55;101990.53;5066503;28;20172;-81
2022/07/04 07:22:56;;;;;;;1.30;1.20;;;;;;;19.76;63.86;101976.22;5089306;28;20444;-81
2022/07/04 07:25:21;;;;;;;1.50;1.40;;;;;;;20.02;63.85;101984.13;5092626;28;20032;-81
2022/07/04 07:27:46;;;;;;;1.40;1.30;;;;;;;20.26;64.08;101987.59;5090249;28;20032;-81
2022/07/04 07:30:12;;;;;;;1.43;1.33;;;;;;;20.38;63.61;101999.44;5092117;28;20394;-81
2022/07/04 07:32:37;;;;;;;1.17;1.10;;;;;;;20.47;63.53;101999.13;5092487;28;20522;-81
2022/07/04 07:35:03;;;;;;;1.20;0.97;;;;;;;20.64;63.06;102009.00;5092493;28;20101;-81
2022/07/04 07:37:34;;;;;;;0.90;0.90;;;;;;;20.76;61.46;102001.56;5091594;28;20035;-82
2022/07/04 07:40:00;;;;;;;4.30;1.45;;;;;;;20.85;62.53;102002.94;5090099;28;20028;-81
2022/07/04 07:42:26;;;;;;;2.88;1.50;;;;;;;20.96;61.01;102003.38;5092192;28;20056;-81
2022/07/04 07:44:51;;;;;;;1.17;1.07;;;;;;;21.01;60.64;101997.91;5094789;28;20376;-80
2022/07/04 07:47:17;;;;;;;2.17;1.60;;;;;;;21.08;60.26;101986.19;5096505;28;20480;-80
2022/07/04 07:49:43;;;;;;;2.57;1.33;;;;;;;21.14;61.87;101989.44;5096333;28;20069;-81
2022/07/04 07:52:08;;;;;;;1.42;1.02;;;;;;;21.32;61.34;101983.44;5095963;28;20110;-81
2022/07/04 07:54:33;;;;;;;1.60;1.30;;;;;;;21.41;59.55;101985.69;5096580;28;20031;-81
2022/07/04 07:56:59;;;;;;;1.43;1.30;;;;;;;21.47;60.08;101980.13;5095976;28;20414;-81
2022/07/04 07:59:24;;;;;;;2.03;1.00;;;;;;;21.58;59.47;101982.31;5095829;28;20028;-81
2022/07/04 08:01:49;;;;;;;1.13;1.00;;;;;;;21.63;59.26;101975.06;5096276;28;20394;-81
2022/07/04 08:06:58;;;;;;;1.02;0.80;;;;;;;21.69;57.01;101969.53;5074995;28;20444;-81
2022/07/04 08:09:24;;;;;;;0.97;0.90;;;;;;;21.71;59.41;101977.38;5075090;28;20063;-80
2022/07/04 08:11:49;;;;;;;0.73;0.73;;;;;;;21.73;57.66;101980.81;5074428;28;20065;-81
2022/07/04 08:14:14;;;;;;;1.13;0.87;;;;;;;21.74;57.38;101974.59;5075428;28;20029;-81
2022/07/04 08:16:40;;;;;;;1.23;0.80;;;;;;;21.71;57.04;101972.09;5075616;28;20028;-80
2022/07/04 08:19:06;;;;;;;0.85;0.80;;;;;;;21.67;57.85;101976.66;5074795;28;20030;-85
2022/07/04 08:21:31;;;;;;;0.70;0.70;;;;;;;21.71;57.48;101980.88;5075805;28;20024;-82
2022/07/04 08:23:59;;;;;;;0.70;0.70;;;;;;;21.82;57.08;101984.84;5075551;28;20021;-81
2022/07/04 08:26:28;;;;;;;0.60;0.60;;;;;;;21.95;57.65;101991.28;5074693;28;20538;-81
2022/07/04 08:28:57;;;;;;;0.57;0.40;;;;;;;22.05;56.43;101991.69;5075567;28;20028;-81
2022/07/04 08:34:35;;;;;;;0.68;0.68;;;;;;;22.12;54.78;101992.28;5091970;28;20454;-82
2022/07/04 08:37:15;;;;;;;1.23;0.80;;;;;;;22.14;56.18;101986.00;5091998;28;20040;-82
2022/07/04 08:39:41;;;;;;;0.85;0.85;;;;;;;22.23;55.96;101999.75;5095019;28;20035;-82
2022/07/04 08:42:20;;;;;;;1.40;0.73;;;;;;;22.25;53.91;101987.28;5086125;28;20040;-82
2022/07/04 08:44:53;;;;;;;2.00;1.10;;;;;;;22.31;54.09;101994.94;5074918;28;20107;-82
2022/07/04 08:47:23;;;;;;;1.30;0.65;;;;;;;22.32;54.01;101989.56;5074323;28;20676;-82
2022/07/04 08:49:59;;;;;;;1.58;1.08;;;;;;;22.36;54.90;101991.16;5074803;28;20492;-82
2022/07/04 08:52:53;;;;;;;1.33;0.82;;;;;;;22.39;52.70;101989.28;5075659;28;20025;-82
2022/07/04 09:00:49;;;;;;;1.03;0.80;;;;;;;22.64;55.02;102000.44;5053465;28;20132;-82
2022/07/04 09:03:18;;;;;;;0.90;0.80;;;;;;;22.72;54.01;101996.59;5051510;28;20466;-82
2022/07/04 09:05:43;;;;;;;0.50;0.50;;;;;;;22.87;54.14;102005.56;5055144;28;20425;-81
2022/07/04 09:08:15;;;;;;;0.80;0.77;;;;;;;22.93;50.50;101984.06;5054304;28;20048;-81
2022/07/04 09:10:40;;;;;;;0.70;0.70;;;;;;;23.06;54.23;101995.75;5055056;28;20036;-81
2022/07/04 09:13:08;;;;;;;1.03;0.93;;;;;;;23.09;51.39;101998.25;5055368;28;20029;-82
2022/07/04 09:15:36;;;;;;;1.10;1.00;;;;;;;23.03;53.95;101989.78;5054227;28;20829;-82
2022/07/04 09:18:03;;;;;;;1.20;1.10;;;;;;;23.08;51.91;101999.19;5055202;28;20051;-82
2022/07/04 09:20:31;;;;;;;2.25;1.38;;;;;;;23.12;52.05;101998.13;5054411;28;20112;-83
2022/07/04 09:22:56;;;;;;;1.15;1.08;;;;;;;23.18;51.55;101996.94;5053744;28;20139;-83
2022/07/04 09:25:24;;;;;;;4.43;1.43;;;;;;;23.21;52.13;102004.75;5054392;28;20104;-83
2022/07/04 09:27:55;;;;;;;1.85;1.08;;;;;;;23.32;53.33;102001.56;5049918;28;20032;-84
2022/07/04 09:30:35;;;;;;;0.80;0.80;;;;;;;23.52;50.89;101997.03;5046027;28;20195;-82
2022/07/04 09:33:00;;;;;;;1.15;1.02;;;;;;;23.60;51.16;101998.34;5054115;28;20021;-84
2022/07/04 09:35:28;;;;;;;0.60;0.60;;;;;;;23.70;53.22;101998.72;5054769;28;20021;-85
2022/07/04 09:38:00;;;;;;;1.08;0.90;;;;;;;23.87;53.06;101996.97;5053488;28;20032;-83
2022/07/04 09:43:29;;;;;;;1.40;1.00;;;;;;;23.93;46.98;101993.97;5047680;28;20052;-82
2022/07/04 09:46:01;;;;;;;1.30;0.87;;;;;;;23.93;49.49;101988.66;5053951;28;20021;-83
2022/07/04 09:48:49;;;;;;;2.17;1.30;;;;;;;24.06;50.31;101995.06;5053775;28;20040;-83
2022/07/04 09:51:14;;;;;;;0.80;0.80;;;;;;;24.18;51.45;101985.59;5053310;28;20025;-83
2022/07/04 09:53:47;;;;;;;0.87;0.80;;;;;;;24.37;49.54;101987.22;5053946;28;20556;-81
2022/07/04 09:56:12;;;;;;;0.82;0.65;;;;;;;24.47;51.11;101991.06;5054020;28;20025;-81
2022/07/04 09:58:38;;;;;;;2.13;1.00;;;;;;;24.55;48.81;101989.75;5018718;28;20036;-79
2022/07/04 10:01:03;;;;;;;0.60;0.60;;;;;;;24.59;50.16;101993.97;5054134;28;20516;-81
2022/07/04 10:03:32;;;;;;;1.17;0.87;;;;;;;24.65;49.32;102001.59;5053434;28;20032;-82
2022/07/04 10:06:12;;;;;;;1.15;0.88;;;;;;;24.69;48.48;101995.19;5052399;28;20038;-81
2022/07/04 10:08:40;;;;;;;1.08;0.68;;;;;;;24.79;49.61;101988.41;5053419;28;20025;-81
2022/07/04 10:11:06;;;;;;;0.60;0.60;;;;;;;24.91;48.25;101978.00;5053864;28;20032;-83
2022/07/04 10:13:38;;;;;;;0.88;0.77;;;;;;;24.99;48.16;101991.72;5052832;28;20079;-83
2022/07/04 10:16:04;;;;;;;1.27;0.88;;;;;;;25.02;47.94;101983.56;5053612;28;20013;-84
2022/07/04 10:18:35;;;;;;;1.52;1.08;;;;;;;25.11;48.19;101980.34;5053154;28;20528;-81
2022/07/04 10:21:00;;;;;;;1.90;1.25;;;;;;;25.21;48.43;101969.19;5053233;28;20020;-83
2022/07/04 10:23:32;;;;;;;1.88;1.10;;;;;;;25.26;47.58;101961.78;5053577;28;20016;-83
2022/07/04 10:25:58;;;;;;;0.77;0.77;;;;;;;25.38;48.83;101971.69;5052223;28;20025;-84
2022/07/04 10:28:24;;;;;;;0.75;0.75;;;;;;;25.54;48.54;101968.13;5053310;28;20025;-83
2022/07/04 10:30:55;;;;;;;0.85;0.85;;;;;;;25.45;49.20;101961.56;5053166;28;20115;-83
2022/07/04 10:33:24;;;;;;;0.55;0.55;;;;;;;25.56;46.90;101959.13;5052094;28;20120;-83
2022/07/04 10:36:04;;;;;;;1.67;0.70;;;;;;;25.56;47.19;101964.44;5052625;28;20545;-83
2022/07/04 10:38:47;;;;;;;2.50;0.90;;;;;;;25.59;44.77;101958.06;5053019;28;20055;-83
2022/07/04 10:41:14;;;;;;;1.13;0.70;;;;;;;25.71;47.62;101973.25;5052932;28;20021;-84
2022/07/04 10:43:48;;;;;;;;;;;;;;;25.80;46.75;101958.53;5053036;28;20029;-83
2022/07/04 10:46:13;;;;;;;1.27;1.17;;;;;;;25.83;44.44;101953.03;5053088;28;19982;-83
2022/07/04 10:49:03;;;;;;;2.73;1.40;;;;;;;25.61;45.68;101953.50;5051974;28;20470;-83
2022/07/04 10:51:56;;;;;;;2.72;1.42;;;;;;;25.45;46.34;101956.25;5038574;28;20029;-83
2022/07/04 10:54:32;;;;;;;2.40;0.90;;;;;;;25.48;44.93;101945.44;5033624;28;20382;-83
2022/07/04 10:57:20;;;;;;;0.93;0.93;;;;;;;25.56;42.53;101944.94;5051668;28;20060;-84
2022/07/04 10:59:51;;;;;;;1.98;1.38;;;;;;;25.52;45.77;101941.63;5051230;28;20029;-83
2022/07/04 11:02:17;;;;;;;1.42;0.95;;;;;;;25.78;46.90;101946.31;5038791;28;20033;-84
2022/07/04 11:05:02;;;;;;;0.80;0.80;;;;;;;26.17;46.45;101940.28;5053361;28;20036;-83
2022/07/04 11:07:40;;;;;;;;;;;;;;;26.37;46.48;101943.47;5050764;28;20080;-84
2022/07/04 11:12:59;;;;;;;3.88;1.30;;;;;;;26.77;45.05;101947.94;5050785;28;20033;-84
2022/07/04 11:15:32;;;;;;;0.90;0.90;;;;;;;26.71;44.24;101949.22;5051464;28;20021;-84
2022/07/04 11:17:57;;;;;;;2.00;1.23;;;;;;;26.46;45.09;101948.16;5048201;28;20045;-84
2022/07/04 11:20:25;;;;;;;1.87;1.20;;;;;;;26.29;44.88;101948.44;5053663;28;20037;-84
2022/07/04 11:23:24;;;;;;;1.30;1.20;;;;;;;26.39;43.25;101952.19;5049911;28;20025;-85
2022/07/04 11:25:52;;;;;;;2.50;1.55;;;;;;;26.21;42.32;101941.78;5050618;28;20033;-85
2022/07/04 11:28:31;;;;;;;1.35;1.20;;;;;;;26.02;44.23;101939.41;5050292;28;20551;-84
2022/07/04 11:30:57;;;;;;;1.08;1.00;;;;;;;25.88;46.05;101942.13;5051276;28;20032;-83
2022/07/04 11:33:26;;;;;;;3.33;1.70;;;;;;;25.64;46.23;101939.16;5053195;28;20448;-84
2022/07/04 11:36:14;;;;;;;1.50;1.40;;;;;;;25.41;47.29;101944.97;5052240;28;20108;-84
2022/07/04 11:38:57;;;;;;;5.00;2.60;;;;;;;24.78;47.19;101936.25;5053546;28;20024;-84
2022/07/04 11:47:08;;;;;;;3.55;2.20;;;;;;;24.01;48.72;101940.56;5053519;28;20048;-84
2022/07/04 11:49:34;;;;;;;3.22;2.63;;;;;;;23.87;47.80;101928.88;5053660;28;20024;-83
2022/07/04 11:51:59;;;;;;;5.50;2.80;;;;;;;23.75;48.68;101930.44;5051969;28;20033;-84
2022/07/04 11:54:25;;;;;;;4.43;2.85;;;;;;;23.90;48.81;101934.03;5053264;28;20059;-83
2022/07/04 11:59:34;;;;;;;9.35;4.20;;;;;;;24.55;44.78;101928.72;5047017;28;20079;-84
2022/07/04 12:02:14;;;;;;;6.85;3.38;;;;;;;24.40;47.17;101930.47;5052070;28;20029;-84